Ida — C4CZ2 — position and weather

sailwx.info

Track history (hours):
 
Tides and Currents Weather Stations Pressure Air Temp Water Temp Dewpoint Dewpoint Depression Visibility Wind Speed Wind Dir Waves Ship Positions

Ida

Last reported at 2015-Mar-07 01:33 UTC. Time now 2015-Mar-07 01:45 UTC.
Position N 51°34' E 002°24'.

Length 82 m; draft 3 m.

Type: Cargo ship. MMSI: 210319000.

Date/timePositionNaut miles runAvg speedWind from/ knotsBaromVisibWave heightAir tempDewpointWater temp
2015-Mar-07 01:33N 51°34' E 002°24'1212.0
2015-Mar-07 00:33N 51°24' E 002°13'1111.4
2015-Mar-06 23:33N 51°14' E 002°03'1110.5
2015-Mar-06 22:33N 51°08' E 001°50'9 8.6
2015-Mar-06 21:33N 51°01' E 001°41'7 6.6
2015-Mar-06 20:33N 50°56' E 001°34'6 5.8
2015-Mar-06 19:33N 50°51' E 001°29'8 6.5
2015-Mar-06 18:23N 50°44' E 001°25'6 7.3
2015-Mar-06 17:32N 50°39' E 001°19'171 9.0
2015-Mar-05 22:28N 49°06' W 002°22'3 3.3
2015-Mar-05 21:33N 49°03' W 002°24'10 9.7
2015-Mar-05 20:33N 48°54' W 002°20'11 9.0
2015-Mar-05 19:22N 48°45' W 002°11'9 8.4
2015-Mar-05 18:19N 48°39' W 002°02'151 3.7
2015-Mar-04 01:33N 50°36' E 000°24'8 7.8
2015-Mar-04 00:33N 50°39' E 000°35'7 7.4
2015-Mar-03 23:33N 50°43' E 000°45'28 7.0
2015-Mar-03 19:33N 51°00' E 001°20'9 9.2
2015-Mar-03 18:34N 51°06' E 001°31'1010.4
2015-Mar-03 17:33N 51°15' E 001°40'1010.3
2015-Mar-03 16:33N 51°25' E 001°44'9 8.8
2015-Mar-03 15:33N 51°34' E 001°44'8 8.1
2015-Mar-03 14:34N 51°42' E 001°45'7 7.4
2015-Mar-03 13:34N 51°49' E 001°45'7 7.1
2015-Mar-03 12:33N 51°56' E 001°46'7 7.0
2015-Mar-03 11:33N 52°03' E 001°49'8 7.6
2015-Mar-03 10:33N 52°11' E 001°52'13 9.2
2015-Mar-03 09:11N 52°23' E 001°57'710.0
2015-Mar-03 08:30N 52°29' E 001°60'8 8.2
2015-Mar-03 07:30N 52°34' E 002°11'107 5.6
2015-Mar-02 12:13N 53°30' E 004°43'4 5.8
2015-Mar-02 11:33N 53°31' E 004°49'6 6.1
2015-Mar-02 10:33N 53°34' E 004°58'6 5.9
2015-Mar-02 09:33N 53°36' E 005°08'5 5.2
2015-Mar-02 08:34N 53°38' E 005°16'5 4.9
2015-Mar-02 07:34N 53°39' E 005°24'4 4.5
2015-Mar-02 06:34N 53°41' E 005°31'4 4.1
2015-Mar-02 05:34N 53°42' E 005°38'4 4.4
2015-Mar-02 04:34N 53°43' E 005°45'5 4.5
2015-Mar-02 03:33N 53°44' E 005°52'5 5.0
2015-Mar-02 02:33N 53°46' E 006°00'48 8.0
2015-Mar-01 20:33N 53°59' E 007°18'7 7.0
2015-Mar-01 19:34N 54°00' E 007°30'6 6.5
2015-Mar-01 18:33N 54°02' E 007°41'6 5.8
2015-Mar-01 17:33N 54°02' E 007°51'5 5.4
2015-Mar-01 16:33N 54°02' E 007°60'5 5.3
2015-Mar-01 15:33N 54°01' E 008°09'6 6.3
2015-Mar-01 14:33N 54°00' E 008°19'9 8.8
2015-Mar-01 13:34N 53°58' E 008°34'1010.1
2015-Mar-01 12:33N 53°51' E 008°46'9 9.2
2015-Mar-01 11:33N 53°52' E 009°02'5 4.6
2015-Mar-01 10:33N 53°54' E 009°09'4 4.3
2015-Mar-01 09:33N 53°57' E 009°14'7 6.6
2015-Mar-01 08:33N 54°03' E 009°18'7 6.2
2015-Mar-01 07:30N 54°09' E 009°22'10 7.4
2015-Mar-01 06:12N 54°14' E 009°36'5 7.3
2015-Mar-01 05:33N 54°18' E 009°41'8 7.6
2015-Mar-01 04:33N 54°22' E 009°52'4 4.0
2015-Mar-01 03:33N 54°21' E 009°59'3 3.0
2015-Mar-01 02:33N 54°22' E 010°03'3 3.0
2015-Mar-01 01:34N 54°22' E 010°09'2 2.3
2015-Mar-01 00:34N 54°23' E 010°12'8 7.9
2015-Feb-28 23:33N 54°30' E 010°18'9 8.9
2015-Feb-28 22:34N 54°35' E 010°32'156 7.8
2015-Feb-28 02:32N 57°10' E 010°44'9 9.0
2015-Feb-28 01:33N 57°19' E 010°42'10 9.4
2015-Feb-28 00:31N 57°29' E 010°46'9 8.9
2015-Feb-27 23:33N 57°37' E 010°49'7 7.3
2015-Feb-27 22:33N 57°44' E 010°55'8 8.2
2015-Feb-27 21:34N 57°51' E 010°60'8 8.4
2015-Feb-27 20:34N 57°59' E 011°04'8 8.4
2015-Feb-27 19:33N 58°08' E 011°08'7 7.4
2015-Feb-27 18:33N 58°15' E 011°12'8 8.3
2015-Feb-27 17:33N 58°16' E 011°28'0 0.1
2015-Feb-27 15:24N 58°16' E 011°27'0 0.0
2015-Feb-27 13:18N 58°16' E 011°27'0 0.0
2015-Feb-27 12:33N 58°16' E 011°27'0 0.0
2015-Feb-27 11:33N 58°16' E 011°27'0 0.0
2015-Feb-27 10:33N 58°16' E 011°27'2 1.9
2015-Feb-27 09:33N 58°16' E 011°24'8 8.3
2015-Feb-27 08:34N 58°17' E 011°09'6 6.4
2015-Feb-27 07:34N 58°22' E 011°01'6 5.7
2015-Feb-27 06:34N 58°27' E 010°54'5 4.9
2015-Feb-27 05:33N 58°31' E 010°48'5 4.9
2015-Feb-27 04:33N 58°34' E 010°42'5 4.5
2015-Feb-27 03:34N 58°37' E 010°36'5 4.9
2015-Feb-27 02:30N 58°41' E 010°28'58 1.7
2015-Feb-25 15:33N 58°14' E 008°50'9 8.7
2015-Feb-25 14:33N 58°08' E 008°39'  
Track history (hours):
 
Tides and Currents Weather Stations Pressure Air Temp Water Temp Dewpoint Dewpoint Depression Visibility Wind Speed Wind Dir Waves Ship Positions

Ida

Last reported at 2015-Mar-07 01:33 UTC. Time now 2015-Mar-07 01:45 UTC.
Position N 51°34' E 002°24'.

Length 82 m; draft 3 m.

Type: Cargo ship. MMSI: 210319000.

Date/timePositionNaut miles runAvg speedWind from/ knotsBaromVisibWave heightAir tempDewpointWater temp
2015-Mar-07 01:33N 51°34' E 002°24'1212.0
2015-Mar-07 00:33N 51°24' E 002°13'1111.4
2015-Mar-06 23:33N 51°14' E 002°03'1110.5
2015-Mar-06 22:33N 51°08' E 001°50'9 8.6
2015-Mar-06 21:33N 51°01' E 001°41'7 6.6
2015-Mar-06 20:33N 50°56' E 001°34'6 5.8
2015-Mar-06 19:33N 50°51' E 001°29'8 6.5
2015-Mar-06 18:23N 50°44' E 001°25'6 7.3
2015-Mar-06 17:32N 50°39' E 001°19'171 9.0
2015-Mar-05 22:28N 49°06' W 002°22'3 3.3
2015-Mar-05 21:33N 49°03' W 002°24'10 9.7
2015-Mar-05 20:33N 48°54' W 002°20'11 9.0
2015-Mar-05 19:22N 48°45' W 002°11'9 8.4
2015-Mar-05 18:19N 48°39' W 002°02'151 3.7
2015-Mar-04 01:33N 50°36' E 000°24'8 7.8
2015-Mar-04 00:33N 50°39' E 000°35'7 7.4
2015-Mar-03 23:33N 50°43' E 000°45'28 7.0
2015-Mar-03 19:33N 51°00' E 001°20'9 9.2
2015-Mar-03 18:34N 51°06' E 001°31'1010.4
2015-Mar-03 17:33N 51°15' E 001°40'1010.3
2015-Mar-03 16:33N 51°25' E 001°44'9 8.8
2015-Mar-03 15:33N 51°34' E 001°44'8 8.1
2015-Mar-03 14:34N 51°42' E 001°45'7 7.4
2015-Mar-03 13:34N 51°49' E 001°45'7 7.1
2015-Mar-03 12:33N 51°56' E 001°46'7 7.0
2015-Mar-03 11:33N 52°03' E 001°49'8 7.6
2015-Mar-03 10:33N 52°11' E 001°52'13 9.2
2015-Mar-03 09:11N 52°23' E 001°57'710.0
2015-Mar-03 08:30N 52°29' E 001°60'8 8.2
2015-Mar-03 07:30N 52°34' E 002°11'107 5.6
2015-Mar-02 12:13N 53°30' E 004°43'4 5.8
2015-Mar-02 11:33N 53°31' E 004°49'6 6.1
2015-Mar-02 10:33N 53°34' E 004°58'6 5.9
2015-Mar-02 09:33N 53°36' E 005°08'5 5.2
2015-Mar-02 08:34N 53°38' E 005°16'5 4.9
2015-Mar-02 07:34N 53°39' E 005°24'4 4.5
2015-Mar-02 06:34N 53°41' E 005°31'4 4.1
2015-Mar-02 05:34N 53°42' E 005°38'4 4.4
2015-Mar-02 04:34N 53°43' E 005°45'5 4.5
2015-Mar-02 03:33N 53°44' E 005°52'5 5.0
2015-Mar-02 02:33N 53°46' E 006°00'48 8.0
2015-Mar-01 20:33N 53°59' E 007°18'7 7.0
2015-Mar-01 19:34N 54°00' E 007°30'6 6.5
2015-Mar-01 18:33N 54°02' E 007°41'6 5.8
2015-Mar-01 17:33N 54°02' E 007°51'5 5.4
2015-Mar-01 16:33N 54°02' E 007°60'5 5.3
2015-Mar-01 15:33N 54°01' E 008°09'6 6.3
2015-Mar-01 14:33N 54°00' E 008°19'9 8.8
2015-Mar-01 13:34N 53°58' E 008°34'1010.1
2015-Mar-01 12:33N 53°51' E 008°46'9 9.2
2015-Mar-01 11:33N 53°52' E 009°02'5 4.6
2015-Mar-01 10:33N 53°54' E 009°09'4 4.3
2015-Mar-01 09:33N 53°57' E 009°14'7 6.6
2015-Mar-01 08:33N 54°03' E 009°18'7 6.2
2015-Mar-01 07:30N 54°09' E 009°22'10 7.4
2015-Mar-01 06:12N 54°14' E 009°36'5 7.3
2015-Mar-01 05:33N 54°18' E 009°41'8 7.6
2015-Mar-01 04:33N 54°22' E 009°52'4 4.0
2015-Mar-01 03:33N 54°21' E 009°59'3 3.0
2015-Mar-01 02:33N 54°22' E 010°03'3 3.0
2015-Mar-01 01:34N 54°22' E 010°09'2 2.3
2015-Mar-01 00:34N 54°23' E 010°12'8 7.9
2015-Feb-28 23:33N 54°30' E 010°18'9 8.9
2015-Feb-28 22:34N 54°35' E 010°32'156 7.8
2015-Feb-28 02:32N 57°10' E 010°44'9 9.0
2015-Feb-28 01:33N 57°19' E 010°42'10 9.4
2015-Feb-28 00:31N 57°29' E 010°46'9 8.9
2015-Feb-27 23:33N 57°37' E 010°49'7 7.3
2015-Feb-27 22:33N 57°44' E 010°55'8 8.2
2015-Feb-27 21:34N 57°51' E 010°60'8 8.4
2015-Feb-27 20:34N 57°59' E 011°04'8 8.4
2015-Feb-27 19:33N 58°08' E 011°08'7 7.4
2015-Feb-27 18:33N 58°15' E 011°12'8 8.3
2015-Feb-27 17:33N 58°16' E 011°28'0 0.1
2015-Feb-27 15:24N 58°16' E 011°27'0 0.0
2015-Feb-27 13:18N 58°16' E 011°27'0 0.0
2015-Feb-27 12:33N 58°16' E 011°27'0 0.0
2015-Feb-27 11:33N 58°16' E 011°27'0 0.0
2015-Feb-27 10:33N 58°16' E 011°27'2 1.9
2015-Feb-27 09:33N 58°16' E 011°24'8 8.3
2015-Feb-27 08:34N 58°17' E 011°09'6 6.4
2015-Feb-27 07:34N 58°22' E 011°01'6 5.7
2015-Feb-27 06:34N 58°27' E 010°54'5 4.9
2015-Feb-27 05:33N 58°31' E 010°48'5 4.9
2015-Feb-27 04:33N 58°34' E 010°42'5 4.5
2015-Feb-27 03:34N 58°37' E 010°36'5 4.9
2015-Feb-27 02:30N 58°41' E 010°28'58 1.7
2015-Feb-25 15:33N 58°14' E 008°50'9 8.7
2015-Feb-25 14:33N 58°08' E 008°39'  

Dump ship's entire track history